createdAt,value
2023-01-26T00:00:04.491Z,0.80
2023-01-26T00:03:05.979Z,0.60
2023-01-26T00:06:08.529Z,0.90
2023-01-26T00:09:13.002Z,1.10
2023-01-26T00:12:14.556Z,0.90
2023-01-26T00:15:16.021Z,0.60
2023-01-26T00:18:17.629Z,0.40
2023-01-26T00:21:20.794Z,0.60
2023-01-26T00:24:22.410Z,0.90
2023-01-26T00:27:23.991Z,0.70
2023-01-26T00:30:25.485Z,0.70
2023-01-26T00:33:26.964Z,0.50
2023-01-26T00:36:28.556Z,0.70
2023-01-26T00:39:30.044Z,0.50
2023-01-26T00:42:31.512Z,0.70
2023-01-26T00:45:34.434Z,0.90
2023-01-26T00:48:35.896Z,0.40
2023-01-26T00:51:37.434Z,0.60
2023-01-26T00:54:39.266Z,1.00
2023-01-26T00:57:40.783Z,0.60
2023-01-26T01:00:42.320Z,0.50
2023-01-26T01:03:43.859Z,0.80
2023-01-26T01:06:45.415Z,0.70
2023-01-26T01:09:47.029Z,1.10
2023-01-26T01:12:48.699Z,0.60
2023-01-26T01:15:50.186Z,1.00
2023-01-26T01:18:55.352Z,0.40
2023-01-26T01:21:56.851Z,0.60
2023-01-26T01:24:58.348Z,0.70
2023-01-26T01:27:59.807Z,0.70
2023-01-26T01:31:12.341Z,0.90
2023-01-26T01:34:13.890Z,1.00
2023-01-26T01:37:16.346Z,0.70
2023-01-26T01:40:17.883Z,0.80
2023-01-26T01:43:19.703Z,0.80
2023-01-26T01:46:21.483Z,2.10
2023-01-26T01:49:26.642Z,0.50
2023-01-26T01:52:29.790Z,0.60
2023-01-26T01:55:31.644Z,0.90
2023-01-26T01:58:36.077Z,0.80
2023-01-26T02:01:37.978Z,0.80
2023-01-26T02:04:39.474Z,0.70
2023-01-26T02:07:40.960Z,0.60
2023-01-26T02:10:44.850Z,0.60
2023-01-26T02:13:47.520Z,0.50
2023-01-26T02:16:49.044Z,0.80
2023-01-26T02:19:56.112Z,0.90
2023-01-26T02:23:00.851Z,0.70
2023-01-26T02:26:07.151Z,0.60
2023-01-26T02:29:09.948Z,0.70
2023-01-26T02:32:11.642Z,0.30
2023-01-26T02:35:13.123Z,0.60
2023-01-26T02:38:15.121Z,0.60
2023-01-26T02:41:35.547Z,0.60
2023-01-26T02:44:37.980Z,1.50
2023-01-26T02:47:40.412Z,0.60
2023-01-26T02:50:41.912Z,0.60
2023-01-26T02:53:43.388Z,0.80
2023-01-26T02:56:44.872Z,1.10
2023-01-26T02:59:46.383Z,0.30
2023-01-26T03:02:48.541Z,0.60
2023-01-26T03:05:50.442Z,0.90
2023-01-26T03:08:51.915Z,0.70
2023-01-26T03:11:53.386Z,1.60
2023-01-26T03:15:13.827Z,1.00
2023-01-26T03:18:34.841Z,0.70
2023-01-26T03:21:56.762Z,0.30
2023-01-26T03:25:16.763Z,0.40
2023-01-26T03:28:22.261Z,0.50
2023-01-26T03:31:25.861Z,0.60
2023-01-26T03:34:29.391Z,0.50
2023-01-26T03:37:36.805Z,2.10
2023-01-26T03:40:57.031Z,0.80
2023-01-26T03:44:16.941Z,0.60
2023-01-26T03:47:37.022Z,0.90
2023-01-26T03:50:57.104Z,0.60
2023-01-26T03:54:17.135Z,0.80
2023-01-26T03:57:18.671Z,0.90
2023-01-26T04:00:21.428Z,0.90
2023-01-26T04:03:41.786Z,0.80
2023-01-26T04:07:03.331Z,0.60
2023-01-26T04:10:05.007Z,0.80
2023-01-26T04:13:25.304Z,0.70
2023-01-26T04:16:45.300Z,1.20
2023-01-26T04:20:05.503Z,0.70
2023-01-26T04:23:06.956Z,0.70
2023-01-26T04:26:08.481Z,0.50
2023-01-26T04:29:11.559Z,0.50
2023-01-26T04:32:13.161Z,0.70
2023-01-26T04:35:14.692Z,0.30
2023-01-26T04:38:17.917Z,0.90
2023-01-26T04:41:19.718Z,0.90
2023-01-26T04:44:21.184Z,0.70
2023-01-26T04:47:22.669Z,1.00
2023-01-26T04:50:24.403Z,0.90
2023-01-26T04:53:25.904Z,0.60
2023-01-26T04:56:28.907Z,1.00
2023-01-26T04:59:30.829Z,0.60
2023-01-26T05:02:32.328Z,0.30
2023-01-26T05:05:37.266Z,0.70
2023-01-26T05:08:38.771Z,0.90
2023-01-26T05:11:40.305Z,1.10
2023-01-26T05:14:41.777Z,1.30
2023-01-26T05:17:43.251Z,1.10
2023-01-26T05:20:44.714Z,1.30
2023-01-26T05:23:46.249Z,0.70
2023-01-26T05:26:48.331Z,1.00
2023-01-26T05:29:50.668Z,1.10
2023-01-26T05:32:52.219Z,1.00
2023-01-26T05:35:53.924Z,1.20
2023-01-26T05:38:55.403Z,0.80
2023-01-26T05:41:56.985Z,0.90
2023-01-26T05:44:58.513Z,1.10
2023-01-26T05:48:00.028Z,1.40
2023-01-26T05:51:03.935Z,1.40
2023-01-26T05:54:05.960Z,0.90
2023-01-26T05:57:07.791Z,2.10
2023-01-26T06:00:10.111Z,0.80
2023-01-26T06:03:11.854Z,1.20
2023-01-26T06:06:13.337Z,1.00
2023-01-26T06:09:14.966Z,1.10
2023-01-26T06:12:17.630Z,1.40
2023-01-26T06:15:19.107Z,1.00
2023-01-26T06:18:20.673Z,0.70
2023-01-26T06:21:22.409Z,1.20
2023-01-26T06:24:23.963Z,1.70
2023-01-26T06:27:25.534Z,1.10
2023-01-26T06:30:27.198Z,1.00
2023-01-26T06:33:28.973Z,1.00
2023-01-26T06:36:30.511Z,0.80
2023-01-26T06:39:32.012Z,1.20
2023-01-26T06:42:33.609Z,1.20
2023-01-26T06:45:35.164Z,2.30
2023-01-26T06:48:36.917Z,1.20
2023-01-26T06:51:44.076Z,1.10
2023-01-26T06:54:47.785Z,1.00
2023-01-26T06:57:49.359Z,1.20
2023-01-26T07:00:55.105Z,0.90
2023-01-26T07:03:56.630Z,1.00
2023-01-26T07:06:58.196Z,1.20
2023-01-26T07:09:59.683Z,1.30
2023-01-26T07:13:01.190Z,0.90
2023-01-26T07:16:03.825Z,2.00
2023-01-26T07:19:05.348Z,0.90
2023-01-26T07:22:06.885Z,1.00
2023-01-26T07:25:08.421Z,1.10
2023-01-26T07:28:10.650Z,1.50
2023-01-26T07:31:12.603Z,1.30
2023-01-26T07:34:14.122Z,1.40
2023-01-26T07:37:15.600Z,1.60
2023-01-26T07:40:17.259Z,1.20
2023-01-26T07:43:18.736Z,1.20
2023-01-26T07:46:20.233Z,1.20
2023-01-26T07:49:21.687Z,1.20
2023-01-26T07:52:28.650Z,1.40
2023-01-26T07:55:30.269Z,1.20
2023-01-26T07:58:31.745Z,1.50
2023-01-26T08:01:33.335Z,1.10
2023-01-26T08:04:34.848Z,1.60
2023-01-26T08:07:36.387Z,1.20
2023-01-26T08:10:38.118Z,1.20
2023-01-26T08:13:39.919Z,1.50
2023-01-26T08:16:41.493Z,1.50
2023-01-26T08:19:43.783Z,1.50
2023-01-26T08:22:45.355Z,1.80
2023-01-26T08:25:47.294Z,1.30
2023-01-26T08:28:49.033Z,1.50
2023-01-26T08:31:50.720Z,1.40
2023-01-26T08:34:52.371Z,1.70
2023-01-26T08:37:55.967Z,1.30
2023-01-26T08:40:57.786Z,1.60
2023-01-26T08:43:59.391Z,1.60
2023-01-26T08:47:00.884Z,1.70
2023-01-26T08:50:02.352Z,1.90
2023-01-26T08:53:03.838Z,1.90
2023-01-26T08:56:06.155Z,1.60
2023-01-26T08:59:07.703Z,1.70
2023-01-26T09:02:10.084Z,1.80
2023-01-26T09:05:11.704Z,1.90
2023-01-26T09:08:13.244Z,2.00
2023-01-26T09:11:14.816Z,2.00
2023-01-26T09:14:16.431Z,1.80
2023-01-26T09:17:17.918Z,2.10
2023-01-26T09:20:19.636Z,1.60
2023-01-26T09:23:21.197Z,2.20
2023-01-26T09:26:22.920Z,1.70
2023-01-26T09:29:24.410Z,1.70
2023-01-26T09:32:25.899Z,1.70
2023-01-26T09:35:28.156Z,2.20
2023-01-26T09:38:30.072Z,2.10
2023-01-26T09:41:50.126Z,1.80
2023-01-26T09:45:10.710Z,2.10
2023-01-26T09:48:20.612Z,1.90
2023-01-26T09:51:32.326Z,1.90
2023-01-26T09:54:40.079Z,2.00
2023-01-26T09:57:49.163Z,1.80
2023-01-26T10:00:52.944Z,2.20
2023-01-26T10:04:03.910Z,1.70
2023-01-26T10:07:08.690Z,1.80
2023-01-26T10:10:13.889Z,2.20
2023-01-26T10:13:16.509Z,2.20
2023-01-26T10:16:18.328Z,2.00
2023-01-26T10:19:38.623Z,2.10
2023-01-26T10:22:45.007Z,2.40
2023-01-26T10:25:50.895Z,2.20
2023-01-26T10:28:52.891Z,2.10
2023-01-26T10:31:55.357Z,2.20
2023-01-26T10:34:57.127Z,2.10
2023-01-26T10:37:58.627Z,2.20
2023-01-26T10:41:04.815Z,2.30
2023-01-26T10:44:09.364Z,2.20
2023-01-26T10:47:13.842Z,2.60
2023-01-26T10:50:19.660Z,2.40
2023-01-26T10:53:21.144Z,2.30
2023-01-26T10:56:22.636Z,2.80
2023-01-26T10:59:32.196Z,2.30
2023-01-26T11:03:11.556Z,3.00
2023-01-26T11:06:16.819Z,2.80
2023-01-26T11:09:20.228Z,2.60
2023-01-26T11:12:24.744Z,2.70
2023-01-26T11:15:27.326Z,2.50
2023-01-26T11:18:35.273Z,2.70
2023-01-26T11:21:40.541Z,2.80
2023-01-26T11:24:44.997Z,2.50
2023-01-26T11:27:53.486Z,2.60
2023-01-26T11:30:54.979Z,2.90
2023-01-26T11:34:05.658Z,2.60
2023-01-26T11:37:25.481Z,2.40
2023-01-26T11:40:39.168Z,2.80
2023-01-26T11:43:59.609Z,2.60
2023-01-26T11:47:07.534Z,2.60
2023-01-26T11:50:27.585Z,2.60
2023-01-26T11:53:32.268Z,2.80
2023-01-26T11:56:44.084Z,2.60
2023-01-26T11:59:45.544Z,2.70
2023-01-26T12:02:53.737Z,3.00
2023-01-26T12:05:57.250Z,2.50
2023-01-26T12:09:11.631Z,2.50
2023-01-26T12:12:17.597Z,2.80
2023-01-26T12:15:21.677Z,2.70
2023-01-26T12:18:42.186Z,2.70
2023-01-26T12:21:49.706Z,2.90
2023-01-26T12:25:19.135Z,2.70
2023-01-26T12:28:33.410Z,2.50
2023-01-26T12:31:56.760Z,3.10
2023-01-26T12:34:58.834Z,3.00
2023-01-26T12:38:17.666Z,2.60
2023-01-26T12:41:26.022Z,2.80
2023-01-26T12:44:27.491Z,2.90
2023-01-26T12:47:33.730Z,2.60
2023-01-26T12:50:45.928Z,2.20
2023-01-26T12:54:06.053Z,2.90
2023-01-26T12:57:12.339Z,2.60
2023-01-26T13:00:34.393Z,3.00
2023-01-26T13:03:50.600Z,2.80
2023-01-26T13:07:03.059Z,3.30
2023-01-26T13:10:09.892Z,3.00
2023-01-26T13:13:14.359Z,3.00
2023-01-26T13:16:15.905Z,2.90
2023-01-26T13:19:49.011Z,2.90
2023-01-26T13:22:51.067Z,2.80
2023-01-26T13:26:25.638Z,3.00
2023-01-26T13:29:33.331Z,3.00
2023-01-26T13:32:40.977Z,3.00
2023-01-26T13:35:42.560Z,3.00
2023-01-26T13:38:47.857Z,3.10
2023-01-26T13:41:49.671Z,3.00
2023-01-26T13:44:54.131Z,3.20
2023-01-26T13:47:56.021Z,2.90
2023-01-26T13:51:00.776Z,3.30
2023-01-26T13:54:03.703Z,3.10
2023-01-26T13:57:07.478Z,3.10
2023-01-26T14:00:11.572Z,3.00
2023-01-26T14:03:22.798Z,2.90
2023-01-26T14:06:26.641Z,3.00
2023-01-26T14:09:30.108Z,5.20
2023-01-26T14:12:35.558Z,3.10
2023-01-26T14:15:37.454Z,3.20
2023-01-26T14:18:39.095Z,3.30
2023-01-26T14:21:51.606Z,3.30
2023-01-26T14:24:53.712Z,3.50
2023-01-26T14:27:55.369Z,3.10
2023-01-26T14:31:02.571Z,3.70
2023-01-26T14:34:08.576Z,3.10
2023-01-26T14:37:14.535Z,3.40
2023-01-26T14:40:18.190Z,5.10
2023-01-26T14:43:20.273Z,3.40
2023-01-26T14:46:28.570Z,3.40
2023-01-26T14:49:30.095Z,3.40
2023-01-26T14:52:33.917Z,3.70
2023-01-26T14:55:36.234Z,3.60
2023-01-26T14:58:38.029Z,3.80
2023-01-26T15:01:39.568Z,3.70
2023-01-26T15:04:41.971Z,5.30
2023-01-26T15:07:45.001Z,3.10
2023-01-26T15:10:54.050Z,3.90
2023-01-26T15:13:55.928Z,3.70
2023-01-26T15:17:00.130Z,3.50
2023-01-26T15:20:01.856Z,3.80
2023-01-26T15:23:03.712Z,3.70
2023-01-26T15:26:06.783Z,3.90
2023-01-26T15:29:25.300Z,4.00
2023-01-26T15:32:32.197Z,3.80
2023-01-26T15:35:41.222Z,4.10
2023-01-26T15:38:42.679Z,4.10
2023-01-26T15:41:45.615Z,3.90
2023-01-26T15:44:47.109Z,3.80
2023-01-26T15:47:49.039Z,3.80
2023-01-26T15:50:50.820Z,5.80
2023-01-26T15:53:52.356Z,3.40
2023-01-26T15:56:53.836Z,3.70
2023-01-26T15:59:55.381Z,4.00
2023-01-26T16:02:56.859Z,3.80
2023-01-26T16:05:58.427Z,4.00
2023-01-26T16:08:59.989Z,4.20
2023-01-26T16:12:01.687Z,4.00
2023-01-26T16:15:03.615Z,3.80
2023-01-26T16:18:05.503Z,4.00
2023-01-26T16:21:33.638Z,5.70
2023-01-26T16:24:35.118Z,3.80
2023-01-26T16:27:36.667Z,3.80
2023-01-26T16:30:38.244Z,4.00
2023-01-26T16:33:39.832Z,4.10
2023-01-26T16:36:41.320Z,3.80
2023-01-26T16:39:42.854Z,4.00
2023-01-26T16:42:46.561Z,4.20
2023-01-26T16:45:48.168Z,4.00
2023-01-26T16:48:49.632Z,4.50
2023-01-26T16:51:51.171Z,3.90
2023-01-26T16:54:53.925Z,3.90
2023-01-26T16:57:55.433Z,4.20
2023-01-26T17:00:57.150Z,3.80
2023-01-26T17:03:58.849Z,3.70
2023-01-26T17:07:00.305Z,4.20
2023-01-26T17:10:01.814Z,4.00
2023-01-26T17:13:03.431Z,4.10
2023-01-26T17:16:05.425Z,3.90
2023-01-26T17:19:09.085Z,3.90
2023-01-26T17:22:11.029Z,3.40
2023-01-26T17:25:16.383Z,4.20
2023-01-26T17:28:18.263Z,3.90
2023-01-26T17:31:20.614Z,3.90
2023-01-26T17:34:22.255Z,4.10
2023-01-26T17:37:25.941Z,4.00
2023-01-26T17:40:27.456Z,4.30
2023-01-26T17:43:29.007Z,4.60
2023-01-26T17:46:30.490Z,4.40
2023-01-26T17:49:32.087Z,4.50
2023-01-26T17:52:35.404Z,4.10
2023-01-26T17:55:36.891Z,4.30
2023-01-26T17:58:38.417Z,4.40
2023-01-26T18:01:39.923Z,4.30
2023-01-26T18:04:41.462Z,4.80
2023-01-26T18:07:42.937Z,4.40
2023-01-26T18:10:44.497Z,4.40
2023-01-26T18:13:46.027Z,4.40
2023-01-26T18:16:48.235Z,4.60
2023-01-26T18:19:49.884Z,6.10
2023-01-26T18:22:51.350Z,4.20
2023-01-26T18:25:52.849Z,4.40
2023-01-26T18:28:54.732Z,4.10
2023-01-26T18:31:56.255Z,5.90
2023-01-26T18:34:57.785Z,4.30
2023-01-26T18:37:59.418Z,4.20
2023-01-26T18:41:01.068Z,5.00
2023-01-26T18:44:03.614Z,4.50
2023-01-26T18:47:05.164Z,6.20
2023-01-26T18:50:07.471Z,4.00
2023-01-26T18:53:09.056Z,4.40
2023-01-26T18:56:12.229Z,4.90
2023-01-26T18:59:13.752Z,4.50
2023-01-26T19:02:15.325Z,4.40
2023-01-26T19:05:16.961Z,4.80
2023-01-26T19:08:22.519Z,4.60
2023-01-26T19:11:25.787Z,4.70
2023-01-26T19:14:27.819Z,4.60
2023-01-26T19:17:29.278Z,4.60
2023-01-26T19:20:30.860Z,4.70
2023-01-26T19:23:33.886Z,4.60
2023-01-26T19:26:35.447Z,4.50
2023-01-26T19:29:37.024Z,4.80
2023-01-26T19:32:58.479Z,4.50
2023-01-26T19:36:01.652Z,4.00
2023-01-26T19:39:04.319Z,4.90
2023-01-26T19:42:06.276Z,4.80
2023-01-26T19:45:07.955Z,5.40
2023-01-26T19:48:09.417Z,4.80
2023-01-26T19:51:12.446Z,5.10
2023-01-26T19:54:14.552Z,5.10
2023-01-26T19:57:16.039Z,4.80
2023-01-26T20:00:17.792Z,4.90
2023-01-26T20:03:19.266Z,4.90
2023-01-26T20:06:21.885Z,4.90
2023-01-26T20:09:23.349Z,5.10
2023-01-26T20:12:24.815Z,5.30
2023-01-26T20:15:26.314Z,5.20
2023-01-26T20:18:27.855Z,5.00
2023-01-26T20:21:29.582Z,5.00
2023-01-26T20:24:31.426Z,5.30
2023-01-26T20:27:32.970Z,4.90
2023-01-26T20:30:35.871Z,5.10
2023-01-26T20:33:38.790Z,5.00
2023-01-26T20:36:42.573Z,5.10
2023-01-26T20:39:46.916Z,4.90
2023-01-26T20:42:48.972Z,5.20
2023-01-26T20:45:50.513Z,5.20
2023-01-26T20:48:54.423Z,5.40
2023-01-26T20:51:55.932Z,5.20
2023-01-26T20:54:57.487Z,5.50
2023-01-26T20:57:59.028Z,5.30
2023-01-26T21:01:06.731Z,5.50
2023-01-26T21:04:08.279Z,5.40
2023-01-26T21:07:09.999Z,7.10
2023-01-26T21:10:11.819Z,4.90
2023-01-26T21:13:13.494Z,5.00
2023-01-26T21:16:15.921Z,5.00
2023-01-26T21:19:17.483Z,5.40
2023-01-26T21:22:20.790Z,5.00
2023-01-26T21:25:22.298Z,5.60
2023-01-26T21:28:23.796Z,5.40
2023-01-26T21:31:26.437Z,5.30
2023-01-26T21:34:27.979Z,5.40
2023-01-26T21:37:29.459Z,5.10
2023-01-26T21:40:30.941Z,5.40
2023-01-26T21:43:32.431Z,5.20
2023-01-26T21:46:33.920Z,5.60
2023-01-26T21:49:35.393Z,5.20
2023-01-26T21:52:55.703Z,5.50
2023-01-26T21:55:57.183Z,5.30
2023-01-26T21:59:02.617Z,5.10
2023-01-26T22:02:04.165Z,5.40
2023-01-26T22:05:05.871Z,5.40
2023-01-26T22:08:08.756Z,5.00
2023-01-26T22:11:10.284Z,5.30
2023-01-26T22:14:16.729Z,5.60
2023-01-26T22:17:18.215Z,5.20
2023-01-26T22:20:19.836Z,6.80
2023-01-26T22:23:21.765Z,5.20
2023-01-26T22:26:23.306Z,5.30
2023-01-26T22:29:25.276Z,5.40
2023-01-26T22:32:26.785Z,5.50
2023-01-26T22:35:32.078Z,5.40
2023-01-26T22:38:34.287Z,5.40
2023-01-26T22:41:37.476Z,5.40
2023-01-26T22:44:38.972Z,5.10
2023-01-26T22:47:41.093Z,5.20
2023-01-26T22:50:42.931Z,5.40
2023-01-26T22:53:44.429Z,4.80
2023-01-26T22:56:45.928Z,5.40
2023-01-26T22:59:47.409Z,5.10
2023-01-26T23:02:48.885Z,5.20
2023-01-26T23:05:50.498Z,5.10
2023-01-26T23:08:52.299Z,7.10
2023-01-26T23:11:53.773Z,5.10
2023-01-26T23:14:55.255Z,5.30
2023-01-26T23:17:56.779Z,5.40
2023-01-26T23:20:58.575Z,5.30
2023-01-26T23:24:00.201Z,5.30
2023-01-26T23:27:01.731Z,5.00
2023-01-26T23:30:03.840Z,5.20
2023-01-26T23:33:05.675Z,5.30
2023-01-26T23:36:08.022Z,5.20
2023-01-26T23:39:09.523Z,4.90
2023-01-26T23:42:11.047Z,4.90
2023-01-26T23:45:12.551Z,6.20
2023-01-26T23:48:14.383Z,5.90
2023-01-26T23:51:16.238Z,5.10
2023-01-26T23:54:17.761Z,5.40
2023-01-26T23:57:19.267Z,4.80
